createdAt,value
2019-01-31T00:02:17.974Z,8.03
2019-01-31T00:05:21.698Z,8.77
2019-01-31T00:08:19.581Z,5.77
2019-01-31T00:11:29.020Z,8.83
2019-01-31T00:14:24.678Z,8.23
2019-01-31T00:17:34.786Z,8.33
2019-01-31T00:20:18.117Z,9.20
2019-01-31T00:23:27.018Z,6.37
2019-01-31T00:26:22.299Z,3.63
2019-01-31T00:29:06.792Z,3.87
2019-01-31T00:32:08.515Z,8.67
2019-01-31T00:35:28.471Z,5.33
2019-01-31T00:38:28.198Z,4.17
2019-01-31T00:41:27.651Z,3.20
2019-01-31T00:44:03.649Z,4.47
2019-01-31T00:46:53.077Z,2.40
2019-01-31T00:49:50.814Z,2.60
2019-01-31T00:52:58.025Z,2.90
2019-01-31T00:55:56.177Z,4.20
2019-01-31T00:58:41.754Z,4.27
2019-01-31T01:01:52.918Z,3.37
2019-01-31T01:04:57.289Z,4.10
2019-01-31T01:07:59.336Z,3.23
2019-01-31T01:11:03.833Z,3.93
2019-01-31T01:13:48.627Z,4.17
2019-01-31T01:16:39.758Z,8.93
2019-01-31T01:19:46.774Z,7.07
2019-01-31T01:22:53.053Z,5.57
2019-01-31T01:26:13.129Z,4.17
2019-01-31T01:29:19.747Z,7.13
2019-01-31T01:32:33.652Z,6.27
2019-01-31T01:35:31.521Z,9.00
2019-01-31T01:38:31.069Z,5.30
2019-01-31T01:41:24.227Z,14.17
2019-01-31T01:44:15.885Z,15.70
2019-01-31T01:47:02.307Z,11.60
2019-01-31T01:49:38.780Z,8.77
2019-01-31T01:52:44.153Z,12.73
2019-01-31T01:55:42.353Z,11.23
2019-01-31T01:58:33.269Z,12.33
2019-01-31T02:01:29.592Z,14.37
2019-01-31T02:04:17.018Z,16.60
2019-01-31T02:07:17.842Z,20.83
2019-01-31T02:10:06.165Z,17.40
2019-01-31T02:12:54.898Z,15.03
2019-01-31T02:15:33.429Z,19.97
2019-01-31T02:18:15.729Z,16.73
2019-01-31T02:21:29.533Z,14.47
2019-01-31T02:24:29.697Z,16.37
2019-01-31T02:27:54.703Z,19.70
2019-01-31T02:30:56.862Z,21.47
2019-01-31T02:33:50.637Z,25.97
2019-01-31T02:37:05.193Z,27.47
2019-01-31T02:39:49.006Z,30.17
2019-01-31T02:42:38.158Z,31.90
2019-01-31T02:45:37.475Z,25.77
2019-01-31T02:48:58.779Z,32.57
2019-01-31T02:52:06.091Z,38.60
2019-01-31T02:54:43.686Z,33.37
2019-01-31T02:57:56.929Z,35.03
2019-01-31T03:00:50.296Z,31.97
2019-01-31T03:04:10.478Z,32.43
2019-01-31T03:07:16.388Z,34.43
2019-01-31T03:10:26.401Z,30.70
2019-01-31T03:13:19.043Z,28.57
2019-01-31T03:16:17.825Z,24.33
2019-01-31T03:19:07.967Z,27.93
2019-01-31T03:22:30.157Z,26.73
2019-01-31T03:25:16.654Z,25.93
2019-01-31T03:28:15.314Z,25.23
2019-01-31T03:31:15.981Z,27.90
2019-01-31T03:34:15.921Z,30.10
2019-01-31T03:37:18.176Z,27.10
2019-01-31T03:40:32.023Z,27.13
2019-01-31T03:43:29.524Z,25.50
2019-01-31T03:46:20.904Z,32.77
2019-01-31T03:49:15.293Z,26.17
2019-01-31T03:52:09.177Z,32.10
2019-01-31T03:55:11.834Z,26.70
2019-01-31T03:58:20.566Z,28.27
2019-01-31T04:01:45.890Z,28.20
2019-01-31T04:04:20.447Z,28.83
2019-01-31T04:06:49.909Z,38.73
2019-01-31T04:09:19.337Z,33.93
2019-01-31T04:11:48.777Z,40.00
2019-01-31T04:14:18.246Z,36.50
2019-01-31T04:16:47.670Z,32.87
2019-01-31T04:19:17.111Z,31.03
2019-01-31T04:21:46.883Z,32.13
2019-01-31T04:24:16.338Z,30.93
2019-01-31T04:26:45.768Z,29.80
2019-01-31T04:29:15.209Z,32.37
2019-01-31T04:31:44.625Z,32.03
2019-01-31T04:34:14.049Z,30.33
2019-01-31T04:36:43.519Z,32.47
2019-01-31T04:39:12.941Z,36.47
2019-01-31T04:41:42.357Z,29.30
2019-01-31T04:44:11.821Z,25.00
2019-01-31T04:46:41.310Z,29.73
2019-01-31T04:49:11.045Z,31.53
2019-01-31T04:51:40.465Z,25.23
2019-01-31T04:54:09.884Z,30.53
2019-01-31T04:56:39.308Z,27.53
2019-01-31T04:59:08.720Z,25.50
2019-01-31T05:01:39.115Z,22.53
2019-01-31T05:04:09.864Z,22.37
2019-01-31T05:06:39.311Z,31.37
2019-01-31T05:09:08.740Z,25.73
2019-01-31T05:11:38.158Z,23.13
2019-01-31T05:14:07.584Z,23.27
2019-01-31T05:16:37.009Z,26.00
2019-01-31T05:19:17.999Z,22.47
2019-01-31T05:21:47.553Z,20.47
2019-01-31T05:24:17.163Z,22.40
2019-01-31T05:26:46.575Z,18.03
2019-01-31T05:29:16.026Z,19.53
2019-01-31T05:31:45.473Z,19.20
2019-01-31T05:34:14.931Z,19.63
2019-01-31T05:36:44.357Z,18.40
2019-01-31T05:39:13.773Z,17.77
2019-01-31T05:41:43.236Z,22.60
2019-01-31T05:44:12.653Z,18.30
2019-01-31T05:46:43.129Z,17.27
2019-01-31T05:49:12.585Z,18.53
2019-01-31T05:51:42.289Z,17.10
2019-01-31T05:56:52.657Z,18.47
2019-01-31T05:59:22.361Z,16.80
2019-01-31T06:01:51.800Z,19.37
2019-01-31T06:04:21.359Z,15.47
2019-01-31T06:06:51.022Z,15.07
2019-01-31T06:09:20.456Z,18.13
2019-01-31T06:11:50.011Z,16.40
2019-01-31T06:14:19.610Z,15.47
2019-01-31T06:16:55.313Z,13.50
2019-01-31T06:19:24.822Z,15.37
2019-01-31T06:21:54.310Z,14.93
2019-01-31T06:24:24.137Z,13.10
2019-01-31T06:26:53.614Z,12.37
2019-01-31T06:29:23.145Z,16.03
2019-01-31T06:31:52.558Z,13.30
2019-01-31T06:34:22.002Z,10.17
2019-01-31T06:36:51.708Z,9.57
2019-01-31T06:39:21.157Z,8.87
2019-01-31T06:41:50.610Z,12.53
2019-01-31T06:44:20.026Z,11.80
2019-01-31T06:46:49.445Z,12.77
2019-01-31T06:49:19.121Z,14.23
2019-01-31T06:51:48.629Z,13.17
2019-01-31T06:54:18.062Z,11.97
2019-01-31T06:56:47.490Z,9.77
2019-01-31T06:59:16.915Z,9.93
2019-01-31T07:01:46.335Z,9.17
2019-01-31T07:04:15.783Z,14.17
2019-01-31T07:06:45.449Z,14.60
2019-01-31T07:09:14.875Z,15.17
2019-01-31T07:11:44.296Z,18.77
2019-01-31T07:14:13.773Z,16.40
2019-01-31T07:16:43.385Z,17.33
2019-01-31T07:19:12.814Z,17.70
2019-01-31T07:21:42.250Z,22.40
2019-01-31T07:24:11.682Z,15.87
2019-01-31T07:26:41.593Z,19.30
2019-01-31T07:29:11.208Z,19.57
2019-01-31T07:31:40.621Z,19.40
2019-01-31T07:34:10.058Z,17.67
2019-01-31T07:36:39.517Z,20.37
2019-01-31T07:39:09.223Z,16.47
2019-01-31T07:41:41.427Z,20.43
2019-01-31T07:44:09.805Z,21.13
2019-01-31T07:46:39.256Z,21.53
2019-01-31T07:49:08.844Z,34.93
2019-01-31T07:51:38.301Z,33.83
2019-01-31T07:54:07.747Z,31.67
2019-01-31T07:56:37.185Z,38.97
2019-01-31T07:59:06.629Z,35.53
2019-01-31T08:01:36.054Z,33.13
2019-01-31T08:04:06.608Z,31.73
2019-01-31T08:06:36.159Z,32.63
2019-01-31T08:09:08.263Z,36.13
2019-01-31T08:11:37.662Z,41.23
2019-01-31T08:14:07.410Z,45.57
2019-01-31T08:16:36.860Z,50.60
2019-01-31T08:19:06.531Z,60.60
2019-01-31T08:21:36.058Z,66.47
2019-01-31T08:24:05.602Z,73.70
2019-01-31T08:26:35.018Z,74.20
2019-01-31T08:29:04.497Z,68.63
2019-01-31T08:31:33.950Z,66.13
2019-01-31T08:34:03.378Z,71.50
2019-01-31T08:36:32.854Z,86.47
2019-01-31T08:39:02.302Z,106.40
2019-01-31T08:41:32.996Z,85.53
2019-01-31T08:44:02.442Z,106.00
2019-01-31T08:46:31.850Z,77.33
2019-01-31T08:49:02.203Z,87.33
2019-01-31T08:51:31.822Z,81.20
2019-01-31T08:54:01.266Z,87.70
2019-01-31T08:56:30.690Z,134.73
2019-01-31T08:59:00.118Z,155.00
2019-01-31T09:01:29.542Z,123.97
2019-01-31T09:03:58.966Z,85.20
2019-01-31T09:06:29.361Z,121.93
2019-01-31T09:08:58.821Z,139.23
2019-01-31T09:11:28.250Z,137.07
2019-01-31T09:13:57.691Z,130.70
2019-01-31T09:16:27.165Z,122.03
2019-01-31T09:18:56.899Z,148.10
2019-01-31T09:21:51.110Z,117.57
2019-01-31T09:24:43.401Z,112.50
2019-01-31T09:27:41.437Z,120.20
2019-01-31T09:30:46.713Z,120.83
2019-01-31T09:34:03.610Z,120.70
2019-01-31T09:37:13.938Z,117.27
2019-01-31T09:40:12.926Z,116.50
2019-01-31T09:42:48.586Z,97.20
2019-01-31T09:46:05.666Z,115.97
2019-01-31T09:49:07.765Z,125.27
2019-01-31T09:52:17.869Z,99.37
2019-01-31T09:55:25.771Z,109.53
2019-01-31T09:58:31.574Z,119.70
2019-01-31T10:01:37.341Z,122.07
2019-01-31T10:04:34.797Z,113.47
2019-01-31T10:07:29.395Z,94.63
2019-01-31T10:10:12.408Z,99.87
2019-01-31T10:13:13.038Z,116.67
2019-01-31T10:19:35.860Z,161.23
2019-01-31T10:22:31.873Z,98.97
2019-01-31T10:25:42.795Z,122.20
2019-01-31T10:28:48.766Z,138.67
2019-01-31T10:31:59.613Z,143.80
2019-01-31T10:35:15.699Z,113.47
2019-01-31T10:38:27.492Z,106.90
2019-01-31T10:41:46.538Z,92.37
2019-01-31T10:44:43.117Z,95.30
2019-01-31T10:47:54.657Z,82.00
2019-01-31T10:50:41.683Z,82.10
2019-01-31T10:53:36.775Z,96.43
2019-01-31T10:56:59.922Z,88.83
2019-01-31T11:00:07.222Z,64.03
2019-01-31T11:03:27.290Z,77.30
2019-01-31T11:06:30.189Z,72.80
2019-01-31T11:09:35.418Z,82.90
2019-01-31T11:13:00.015Z,69.47
2019-01-31T11:15:35.869Z,80.73
2019-01-31T11:18:31.550Z,81.30
2019-01-31T11:21:32.263Z,56.60
2019-01-31T11:24:38.053Z,54.23
2019-01-31T11:27:55.216Z,52.07
2019-01-31T11:30:40.859Z,64.77
2019-01-31T11:33:51.035Z,56.27
2019-01-31T11:36:40.064Z,63.13
2019-01-31T11:39:46.737Z,56.63
2019-01-31T11:43:13.426Z,62.77
2019-01-31T11:46:08.929Z,57.47
2019-01-31T11:48:59.621Z,48.87
2019-01-31T11:52:05.694Z,69.60
2019-01-31T11:55:10.862Z,70.00
2019-01-31T11:58:08.796Z,85.33
2019-01-31T12:00:38.263Z,96.77
2019-01-31T12:03:07.713Z,120.90
2019-01-31T12:05:37.158Z,131.47
2019-01-31T12:08:06.590Z,149.07
2019-01-31T12:10:36.027Z,180.77
2019-01-31T12:13:23.459Z,138.23
2019-01-31T12:15:49.290Z,163.53
2019-01-31T12:18:18.756Z,131.03
2019-01-31T12:20:48.195Z,137.27
2019-01-31T12:23:17.894Z,144.13
2019-01-31T12:25:47.349Z,135.67
2019-01-31T12:28:16.770Z,129.17
2019-01-31T12:30:46.971Z,128.53
2019-01-31T12:33:16.395Z,152.83
2019-01-31T12:35:46.804Z,103.00
2019-01-31T12:38:16.216Z,146.10
2019-01-31T12:40:45.785Z,139.87
2019-01-31T12:43:15.459Z,145.57
2019-01-31T12:45:44.882Z,140.83
2019-01-31T12:48:14.289Z,148.40
2019-01-31T12:50:44.117Z,130.73
2019-01-31T12:53:13.550Z,130.83
2019-01-31T12:55:42.969Z,115.87
2019-01-31T12:58:12.671Z,128.30
2019-01-31T13:00:43.295Z,111.10
2019-01-31T13:03:12.718Z,113.20
2019-01-31T13:05:42.810Z,113.33
2019-01-31T13:08:13.214Z,126.23
2019-01-31T13:10:42.649Z,149.47
2019-01-31T13:16:03.517Z,121.27
2019-01-31T13:18:34.062Z,117.03
2019-01-31T13:21:04.001Z,124.70
2019-01-31T13:23:33.462Z,122.83
2019-01-31T13:26:02.993Z,106.17
2019-01-31T13:28:32.410Z,88.77
2019-01-31T13:31:01.841Z,88.63
2019-01-31T13:33:31.257Z,96.47
2019-01-31T13:36:00.669Z,86.07
2019-01-31T13:38:30.114Z,90.73
2019-01-31T13:40:59.611Z,75.00
2019-01-31T13:43:29.249Z,69.40
2019-01-31T13:45:58.655Z,74.13
2019-01-31T13:48:28.075Z,64.30
2019-01-31T13:50:57.508Z,62.83
2019-01-31T13:53:26.949Z,73.23
2019-01-31T13:55:56.430Z,65.93
2019-01-31T13:58:25.896Z,66.33
2019-01-31T14:00:55.309Z,71.30
2019-01-31T14:03:24.725Z,61.30
2019-01-31T14:05:54.149Z,67.07
2019-01-31T14:08:23.561Z,71.90
2019-01-31T14:10:52.985Z,71.67
2019-01-31T14:13:22.619Z,72.93
2019-01-31T14:15:53.895Z,84.93
2019-01-31T14:18:23.191Z,89.70
2019-01-31T14:20:52.598Z,79.33
2019-01-31T14:23:22.009Z,72.67
2019-01-31T14:25:51.418Z,69.37
2019-01-31T14:28:20.842Z,83.77
2019-01-31T14:30:51.416Z,84.83
2019-01-31T14:33:25.123Z,51.90
2019-01-31T14:35:57.914Z,82.83
2019-01-31T14:38:27.662Z,87.00
2019-01-31T14:40:57.223Z,69.13
2019-01-31T14:43:26.649Z,65.00
2019-01-31T14:45:56.066Z,76.27
2019-01-31T14:48:25.518Z,64.17
2019-01-31T14:50:54.922Z,47.53
2019-01-31T14:53:24.371Z,58.03
2019-01-31T14:55:55.579Z,53.53
2019-01-31T14:58:24.962Z,55.70
2019-01-31T15:00:54.377Z,58.07
2019-01-31T15:03:23.819Z,57.53
2019-01-31T15:05:53.263Z,50.93
2019-01-31T15:08:22.704Z,41.00
2019-01-31T15:10:52.629Z,39.20
2019-01-31T15:13:22.338Z,46.60
2019-01-31T15:15:51.853Z,37.53
2019-01-31T15:18:21.299Z,51.40
2019-01-31T15:20:50.704Z,50.40
2019-01-31T15:23:20.165Z,48.13
2019-01-31T15:25:49.598Z,43.80
2019-01-31T15:28:19.081Z,53.73
2019-01-31T15:30:48.540Z,52.53
2019-01-31T15:33:18.023Z,44.07
2019-01-31T15:35:47.582Z,66.77
2019-01-31T15:38:17.024Z,56.60
2019-01-31T15:40:47.747Z,65.63
2019-01-31T15:43:17.196Z,58.30
2019-01-31T15:45:46.697Z,55.67
2019-01-31T15:48:16.409Z,56.47
2019-01-31T15:50:45.841Z,48.93
2019-01-31T15:53:15.284Z,41.77
2019-01-31T15:55:44.705Z,47.80
2019-01-31T15:58:14.123Z,51.60
2019-01-31T16:00:46.464Z,62.17
2019-01-31T16:03:17.879Z,50.83
2019-01-31T16:05:47.516Z,39.17
2019-01-31T16:08:17.201Z,50.60
2019-01-31T16:10:46.826Z,51.03
2019-01-31T16:13:19.604Z,54.63
2019-01-31T16:15:49.135Z,67.03
2019-01-31T16:18:18.721Z,59.40
2019-01-31T16:20:48.204Z,53.83
2019-01-31T16:23:17.659Z,48.07
2019-01-31T16:25:47.942Z,60.13
2019-01-31T16:28:17.948Z,51.43
2019-01-31T16:30:48.021Z,56.67
2019-01-31T16:33:17.772Z,55.73
2019-01-31T16:35:49.052Z,61.63
2019-01-31T16:38:18.538Z,52.43
2019-01-31T16:40:48.108Z,53.03
2019-01-31T16:43:17.558Z,53.70
2019-01-31T16:45:46.975Z,41.70
2019-01-31T16:48:16.389Z,45.87
2019-01-31T16:50:45.849Z,61.60
2019-01-31T16:53:15.282Z,41.87
2019-01-31T16:55:44.745Z,38.37
2019-01-31T16:58:14.225Z,37.23
2019-01-31T17:00:43.654Z,39.07
2019-01-31T17:03:13.664Z,39.73
2019-01-31T17:05:43.445Z,42.57
2019-01-31T17:08:12.913Z,48.53
2019-01-31T17:10:42.340Z,35.43
2019-01-31T17:13:20.590Z,44.40
2019-01-31T17:15:50.094Z,45.10
2019-01-31T17:18:19.538Z,43.93
2019-01-31T17:20:49.000Z,46.60
2019-01-31T17:23:18.455Z,35.47
2019-01-31T17:25:47.891Z,50.27
2019-01-31T17:28:17.382Z,50.20
2019-01-31T17:30:48.161Z,50.10
2019-01-31T17:33:17.635Z,54.63
2019-01-31T17:35:47.065Z,53.03
2019-01-31T17:38:16.546Z,85.17
2019-01-31T17:40:46.017Z,74.37
2019-01-31T17:43:15.469Z,40.10
2019-01-31T17:45:44.972Z,62.70
2019-01-31T17:48:16.781Z,64.63
2019-01-31T17:50:46.788Z,88.30
2019-01-31T17:53:16.241Z,79.33
2019-01-31T17:55:47.013Z,91.93
2019-01-31T17:58:16.476Z,88.57
2019-01-31T18:00:49.459Z,89.13
2019-01-31T18:03:19.134Z,87.40
2019-01-31T18:05:48.650Z,87.63
2019-01-31T18:08:18.106Z,68.07
2019-01-31T18:10:47.852Z,79.47
2019-01-31T18:13:19.549Z,77.80
2019-01-31T18:15:49.350Z,73.67
2019-01-31T18:18:18.835Z,71.07
2019-01-31T18:20:48.354Z,81.10
2019-01-31T18:23:17.776Z,63.57
2019-01-31T18:25:47.226Z,64.13
2019-01-31T18:28:16.697Z,60.10
2019-01-31T18:30:46.186Z,66.33
2019-01-31T18:33:16.099Z,55.67
2019-01-31T18:35:45.522Z,61.30
2019-01-31T18:38:15.241Z,65.90
2019-01-31T18:40:44.726Z,71.33
2019-01-31T18:43:14.231Z,71.57
2019-01-31T18:45:52.902Z,79.00
2019-01-31T18:48:14.870Z,65.87
2019-01-31T18:50:44.290Z,53.73
2019-01-31T18:53:13.919Z,75.80
2019-01-31T18:55:43.320Z,49.80
2019-01-31T18:58:13.148Z,62.20
2019-01-31T19:00:45.146Z,44.10
2019-01-31T19:03:14.598Z,40.27
2019-01-31T19:05:44.045Z,53.47
2019-01-31T19:08:13.462Z,35.73
2019-01-31T19:11:00.236Z,38.47
2019-01-31T19:13:29.875Z,50.00
2019-01-31T19:16:05.137Z,66.33
2019-01-31T19:18:30.513Z,66.37
2019-01-31T19:21:00.007Z,67.13
2019-01-31T19:23:29.434Z,55.67
2019-01-31T19:25:58.870Z,64.17
2019-01-31T19:28:28.325Z,66.67
2019-01-31T19:30:57.771Z,50.60
2019-01-31T19:33:27.252Z,58.53
2019-01-31T19:35:56.682Z,56.17
2019-01-31T19:38:26.362Z,74.47
2019-01-31T19:40:55.852Z,60.20
2019-01-31T19:43:25.302Z,67.50
2019-01-31T19:45:54.786Z,79.80
2019-01-31T19:48:24.374Z,59.83
2019-01-31T19:50:53.879Z,57.57
2019-01-31T19:53:23.336Z,57.47
2019-01-31T19:55:53.194Z,53.60
2019-01-31T19:58:22.722Z,51.47
2019-01-31T20:00:52.662Z,52.63
2019-01-31T20:03:22.096Z,56.03
2019-01-31T20:05:51.646Z,74.23
2019-01-31T20:08:21.078Z,81.00
2019-01-31T20:10:51.017Z,66.10
2019-01-31T20:13:20.485Z,36.60
2019-01-31T20:15:49.909Z,78.20
2019-01-31T20:18:19.412Z,70.37
2019-01-31T20:20:48.850Z,59.47
2019-01-31T20:23:18.284Z,56.30
2019-01-31T20:25:47.740Z,51.60
2019-01-31T20:28:17.170Z,54.03
2019-01-31T20:30:46.658Z,47.53
2019-01-31T20:33:16.126Z,55.47
2019-01-31T20:35:45.603Z,57.53
2019-01-31T20:38:15.067Z,43.83
2019-01-31T20:40:44.794Z,47.90
2019-01-31T20:43:14.220Z,48.33
2019-01-31T20:45:43.927Z,60.67
2019-01-31T20:48:13.410Z,47.60
2019-01-31T20:50:43.419Z,56.10
2019-01-31T20:53:13.177Z,41.83
2019-01-31T20:55:42.763Z,62.83
2019-01-31T20:58:12.203Z,44.00
2019-01-31T21:00:46.233Z,45.17
2019-01-31T21:03:15.866Z,56.80
2019-01-31T21:05:45.556Z,51.03
2019-01-31T21:08:15.226Z,62.57
2019-01-31T21:10:44.769Z,49.40
2019-01-31T21:13:20.066Z,48.80
2019-01-31T21:15:49.541Z,54.20
2019-01-31T21:18:18.970Z,59.37
2019-01-31T21:20:48.395Z,45.30
2019-01-31T21:23:17.826Z,77.13
2019-01-31T21:25:48.667Z,57.33
2019-01-31T21:28:18.113Z,72.40
2019-01-31T21:30:47.544Z,63.60
2019-01-31T21:33:17.004Z,66.87
2019-01-31T21:35:46.450Z,65.47
2019-01-31T21:38:16.415Z,69.23
2019-01-31T21:40:45.882Z,70.83
2019-01-31T21:43:16.379Z,71.73
2019-01-31T21:45:45.847Z,75.33
2019-01-31T21:48:15.290Z,75.17
2019-01-31T21:50:44.717Z,91.10
2019-01-31T21:53:14.154Z,51.00
2019-01-31T21:55:43.610Z,68.07
2019-01-31T21:58:13.281Z,71.40
2019-01-31T22:00:42.729Z,67.93
2019-01-31T22:03:12.153Z,69.83
2019-01-31T22:05:41.583Z,90.50
2019-01-31T22:08:11.033Z,69.77
2019-01-31T22:10:40.474Z,74.70
2019-01-31T22:13:09.915Z,78.73
2019-01-31T22:15:39.342Z,69.60
2019-01-31T22:18:08.787Z,74.73
2019-01-31T22:20:38.241Z,69.73
2019-01-31T22:23:07.695Z,61.93
2019-01-31T22:25:37.602Z,51.57
2019-01-31T22:28:08.023Z,71.93
2019-01-31T22:30:38.057Z,69.67
2019-01-31T22:33:08.721Z,75.80
2019-01-31T22:35:38.387Z,73.97
2019-01-31T22:38:07.828Z,69.23
2019-01-31T22:40:37.415Z,70.47
2019-01-31T22:43:06.865Z,59.13
2019-01-31T22:45:36.746Z,72.30
2019-01-31T22:48:06.805Z,72.30
2019-01-31T22:50:36.245Z,66.73
2019-01-31T22:53:05.979Z,64.47
2019-01-31T22:55:35.479Z,61.33
2019-01-31T22:58:05.833Z,52.07
2019-01-31T23:00:51.346Z,62.93
2019-01-31T23:03:21.378Z,64.17
2019-01-31T23:05:50.843Z,67.60
2019-01-31T23:08:20.274Z,58.27
2019-01-31T23:10:49.708Z,57.97
2019-01-31T23:13:19.138Z,57.77
2019-01-31T23:15:48.584Z,67.47
2019-01-31T23:18:18.041Z,67.70
2019-01-31T23:20:47.492Z,57.93
2019-01-31T23:23:16.923Z,52.40
2019-01-31T23:25:46.552Z,66.60
2019-01-31T23:28:16.195Z,55.93
2019-01-31T23:30:45.646Z,69.87
2019-01-31T23:33:15.098Z,63.93
2019-01-31T23:35:44.547Z,56.10
2019-01-31T23:38:14.021Z,64.40
2019-01-31T23:40:43.721Z,60.17
2019-01-31T23:43:13.179Z,63.30
2019-01-31T23:45:42.613Z,61.43
2019-01-31T23:48:12.034Z,55.77
2019-01-31T23:50:41.994Z,57.43
2019-01-31T23:53:11.466Z,59.17
2019-01-31T23:55:41.161Z,62.43
2019-01-31T23:58:10.615Z,54.13
